Time,TemperatureF,DewpointF,PressureIn,WindDirection,WindDirectionDegrees,WindSpeedMPH,WindSpeedGustMPH,Humidity,HourlyPrecipIn,Conditions,Clouds,dailyrainin,SoftwareType,DateUTC
2014-04-23 00:01:00,62.2,53.0,29.68,WNW,282,0.0,4.0,73,0.00,,,0.00,weatherlink.com 1.10,2014-04-23 04:01:00,
2014-04-23 00:16:00,61.8,53.0,29.68,WNW,294,2.0,5.0,74,0.00,,,0.00,weatherlink.com 1.10,2014-04-23 04:16:00,
2014-04-23 00:31:00,61.3,53.0,29.69,West,277,1.0,4.0,75,0.00,,,0.00,weatherlink.com 1.10,2014-04-23 04:31:00,
2014-04-23 00:46:00,60.5,53.0,29.68,NW,326,0.0,3.0,77,0.00,,,0.00,weatherlink.com 1.10,2014-04-23 04:46:00,
2014-04-23 01:02:00,60.0,53.0,29.68,WNW,287,3.0,5.0,78,0.00,,,0.00,weatherlink.com 1.10,2014-04-23 05:02:00,
2014-04-23 01:17:00,59.9,53.0,29.69,NW,322,0.0,4.0,78,0.00,,,0.00,weatherlink.com 1.10,2014-04-23 05:17:00,
2014-04-23 01:32:00,59.6,52.0,29.69,NW,314,2.0,3.0,77,0.00,,,0.00,weatherlink.com 1.10,2014-04-23 05:32:00,
2014-04-23 01:47:00,59.7,51.0,29.69,NW,311,0.0,4.0,74,0.00,,,0.00,weatherlink.com 1.10,2014-04-23 05:47:00,
2014-04-23 02:02:00,60.8,49.0,29.69,WSW,241,3.0,8.0,66,0.00,,,0.00,weatherlink.com 1.10,2014-04-23 06:02:00,
2014-04-23 02:17:00,61.5,47.0,29.69,NW,311,0.0,7.0,60,0.00,,,0.00,weatherlink.com 1.10,2014-04-23 06:17:00,
2014-04-23 02:32:00,60.6,48.0,29.70,WNW,300,1.0,3.0,63,0.00,,,0.00,weatherlink.com 1.10,2014-04-23 06:32:00,
2014-04-23 02:47:00,58.5,48.0,29.70,North,355,1.0,3.0,68,0.00,,,0.00,weatherlink.com 1.10,2014-04-23 06:47:00,
2014-04-23 03:02:00,57.1,47.0,29.70,North,5,1.0,2.0,68,0.00,,,0.00,weatherlink.com 1.10,2014-04-23 07:02:00,
2014-04-23 03:17:00,57.8,43.0,29.70,NW,317,3.0,9.0,59,0.00,,,0.00,weatherlink.com 1.10,2014-04-23 07:17:00,
2014-04-23 03:32:00,59.1,41.0,29.70,SW,215,1.0,3.0,52,0.00,,,0.00,weatherlink.com 1.10,2014-04-23 07:32:00,
2014-04-23 03:47:00,58.9,41.0,29.71,WNW,300,1.0,5.0,51,0.00,,,0.00,weatherlink.com 1.10,2014-04-23 07:47:00,
2014-04-23 04:02:00,58.6,39.0,29.71,WNW,302,0.0,5.0,48,0.00,,,0.00,weatherlink.com 1.10,2014-04-23 08:02:00,
2014-04-23 04:17:00,57.8,39.0,29.71,WSW,254,1.0,4.0,50,0.00,,,0.00,weatherlink.com 1.10,2014-04-23 08:17:00,
2014-04-23 04:32:00,56.6,38.0,29.71,West,275,1.0,3.0,50,0.00,,,0.00,weatherlink.com 1.10,2014-04-23 08:32:00,
2014-04-23 04:47:00,55.9,37.0,29.73,NW,311,1.0,7.0,50,0.00,,,0.00,weatherlink.com 1.10,2014-04-23 08:47:00,
2014-04-23 05:02:00,55.7,36.0,29.73,WNW,293,3.0,5.0,48,0.00,,,0.00,weatherlink.com 1.10,2014-04-23 09:02:00,
2014-04-23 05:17:00,55.4,35.0,29.74,North,360,1.0,7.0,47,0.00,,,0.00,weatherlink.com 1.10,2014-04-23 09:17:00,
2014-04-23 05:32:00,54.8,35.0,29.74,South,180,0.0,4.0,48,0.00,,,0.00,weatherlink.com 1.10,2014-04-23 09:32:00,
2014-04-23 05:47:00,54.1,35.0,29.75,WNW,286,1.0,3.0,49,0.00,,,0.00,weatherlink.com 1.10,2014-04-23 09:47:00,
2014-04-23 06:02:00,53.4,35.0,29.76,NW,321,3.0,3.0,51,0.00,,,0.00,weatherlink.com 1.10,2014-04-23 10:02:00,
2014-04-23 06:17:00,52.6,35.0,29.76,NNE,25,1.0,5.0,52,0.00,,,0.00,weatherlink.com 1.10,2014-04-23 10:17:00,
2014-04-23 06:32:00,51.7,35.0,29.77,WNW,285,0.0,3.0,53,0.00,,,0.00,weatherlink.com 1.10,2014-04-23 10:32:00,
2014-04-23 06:47:00,51.2,34.0,29.78,NNW,338,0.0,3.0,53,0.00,,,0.00,weatherlink.com 1.10,2014-04-23 10:47:00,
2014-04-23 07:02:00,50.9,35.0,29.79,NW,319,1.0,6.0,54,0.00,,,0.00,weatherlink.com 1.10,2014-04-23 11:02:00,
2014-04-23 07:17:00,51.1,35.0,29.80,NW,317,0.0,5.0,54,0.00,,,0.00,weatherlink.com 1.10,2014-04-23 11:17:00,
2014-04-23 07:32:00,51.5,35.0,29.81,WNW,284,2.0,7.0,54,0.00,,,0.00,weatherlink.com 1.10,2014-04-23 11:32:00,
2014-04-23 07:48:00,52.5,35.0,29.82,North,355,2.0,12.0,51,0.00,,,0.00,weatherlink.com 1.10,2014-04-23 11:48:00,
2014-04-23 08:03:00,53.5,35.0,29.83,West,270,4.0,7.0,49,0.00,,,0.00,weatherlink.com 1.10,2014-04-23 12:03:00,
2014-04-23 08:18:00,54.1,34.0,29.83,West,269,1.0,9.0,47,0.00,,,0.00,weatherlink.com 1.10,2014-04-23 12:18:00,
2014-04-23 08:33:00,54.5,33.0,29.84,NW,309,3.0,9.0,45,0.00,,,0.00,weatherlink.com 1.10,2014-04-23 12:33:00,
2014-04-23 08:48:00,54.0,33.0,29.84,WSW,245,2.0,8.0,45,0.00,,,0.00,weatherlink.com 1.10,2014-04-23 12:48:00,
2014-04-23 09:03:00,54.2,32.0,29.85,NE,37,2.0,8.0,43,0.00,,,0.00,weatherlink.com 1.10,2014-04-23 13:03:00,
2014-04-23 09:18:00,55.4,33.0,29.85,NE,51,0.0,8.0,43,0.00,,,0.00,weatherlink.com 1.10,2014-04-23 13:18:00,
2014-04-23 09:48:00,57.7,33.0,29.86,WSW,255,5.0,10.0,39,0.00,,,0.00,weatherlink.com 1.10,2014-04-23 13:48:00,
2014-04-23 10:03:00,58.1,31.0,29.86,NW,319,2.0,9.0,36,0.00,,,0.00,weatherlink.com 1.10,2014-04-23 14:03:00,
2014-04-23 10:18:00,58.7,31.0,29.86,WSW,246,2.0,19.0,35,0.00,,,0.00,weatherlink.com 1.10,2014-04-23 14:18:00,
2014-04-23 10:33:00,59.7,30.0,29.87,WNW,296,2.0,11.0,33,0.00,,,0.00,weatherlink.com 1.10,2014-04-23 14:33:00,
2014-04-23 10:48:00,61.3,31.0,29.87,East,84,5.0,12.0,32,0.00,,,0.00,weatherlink.com 1.10,2014-04-23 14:48:00,
2014-04-23 11:03:00,62.3,29.0,29.87,East,80,3.0,9.0,29,0.00,,,0.00,weatherlink.com 1.10,2014-04-23 15:03:00,
2014-04-23 11:18:00,62.2,29.0,29.88,NW,305,8.0,10.0,29,0.00,,,0.00,weatherlink.com 1.10,2014-04-23 15:18:00,
2014-04-23 11:33:00,63.4,30.0,29.88,WSW,253,5.0,10.0,28,0.00,,,0.00,weatherlink.com 1.10,2014-04-23 15:33:00,
2014-04-23 11:48:00,63.7,31.0,29.87,West,280,7.0,10.0,29,0.00,,,0.00,weatherlink.com 1.10,2014-04-23 15:48:00,
2014-04-23 12:03:00,65.4,29.0,29.87,North,360,2.0,8.0,26,0.00,,,0.00,weatherlink.com 1.10,2014-04-23 16:03:00,
2014-04-23 12:18:00,65.4,27.0,29.87,NW,318,4.0,13.0,23,0.00,,,0.00,weatherlink.com 1.10,2014-04-23 16:18:00,
2014-04-23 12:33:00,66.7,29.0,29.86,NNW,333,11.0,11.0,24,0.00,,,0.00,weatherlink.com 1.10,2014-04-23 16:33:00,
2014-04-23 12:48:00,67.9,32.0,29.86,SW,217,2.0,10.0,26,0.00,,,0.00,weatherlink.com 1.10,2014-04-23 16:48:00,
2014-04-23 13:03:00,68.4,29.0,29.86,NW,304,4.0,13.0,23,0.00,,,0.00,weatherlink.com 1.10,2014-04-23 17:03:00,
2014-04-23 13:18:00,69.2,30.0,29.86,WSW,242,3.0,7.0,23,0.00,,,0.00,weatherlink.com 1.10,2014-04-23 17:18:00,
2014-04-23 13:33:00,69.0,28.0,29.86,West,259,5.0,10.0,22,0.00,,,0.00,weatherlink.com 1.10,2014-04-23 17:33:00,
2014-04-23 13:48:00,69.3,31.0,29.85,NW,319,2.0,9.0,24,0.00,,,0.00,weatherlink.com 1.10,2014-04-23 17:48:00,
2014-04-23 14:03:00,69.7,30.0,29.86,NNW,328,2.0,7.0,23,0.00,,,0.00,weatherlink.com 1.10,2014-04-23 18:03:00,
2014-04-23 14:18:00,70.9,28.0,29.85,WSW,245,5.0,10.0,20,0.00,,,0.00,weatherlink.com 1.10,2014-04-23 18:18:00,
2014-04-23 14:33:00,70.7,26.0,29.84,NNE,17,5.0,9.0,19,0.00,,,0.00,weatherlink.com 1.10,2014-04-23 18:33:00,
2014-04-23 14:48:00,72.4,29.0,29.85,WSW,255,5.0,9.0,20,0.00,,,0.00,weatherlink.com 1.10,2014-04-23 18:48:00,
2014-04-23 15:03:00,72.0,30.0,29.85,WNW,288,1.0,9.0,21,0.00,,,0.00,weatherlink.com 1.10,2014-04-23 19:03:00,
2014-04-23 15:18:00,72.4,29.0,29.85,SW,219,2.0,15.0,20,0.00,,,0.00,weatherlink.com 1.10,2014-04-23 19:18:00,
2014-04-23 15:33:00,72.2,26.0,29.85,SW,232,5.0,10.0,18,0.00,,,0.00,weatherlink.com 1.10,2014-04-23 19:33:00,
2014-04-23 15:48:00,72.2,28.0,29.84,NW,317,4.0,8.0,19,0.00,,,0.00,weatherlink.com 1.10,2014-04-23 19:48:00,
2014-04-23 16:03:00,72.9,27.0,29.84,WSW,256,4.0,12.0,18,0.00,,,0.00,weatherlink.com 1.10,2014-04-23 20:03:00,
2014-04-23 16:18:00,72.1,28.0,29.84,SSW,207,2.0,13.0,19,0.00,,,0.00,weatherlink.com 1.10,2014-04-23 20:18:00,
2014-04-23 16:33:00,72.5,27.0,29.84,NNW,344,2.0,10.0,18,0.00,,,0.00,weatherlink.com 1.10,2014-04-23 20:33:00,
2014-04-23 16:48:00,73.0,28.0,29.84,NNW,346,1.0,8.0,19,0.00,,,0.00,weatherlink.com 1.10,2014-04-23 20:48:00,
2014-04-23 17:03:00,72.5,28.0,29.84,WNW,298,6.0,10.0,19,0.00,,,0.00,weatherlink.com 1.10,2014-04-23 21:03:00,
2014-04-23 17:18:00,72.0,26.0,29.84,West,274,2.0,12.0,18,0.00,,,0.00,weatherlink.com 1.10,2014-04-23 21:18:00,